Time;durP1;ratioP1;P1;durP2;ratioP2;P2;SDS_P1;SDS_P2;PMS_P1;PMS_P2;Temp;Humidity;BMP_temperature;BMP_pressure;BME280_temperature;BME280_humidity;BME280_pressure;Samples;Min_cycle;Max_cycle;Signal;HPM_P1;HPM_P2
2023/09/01 00:00:12;;;;;;;9.85;4.40;;;;;;;13.00;100.00;101086.72;5007218;28;20126;-70
2023/09/01 00:02:39;;;;;;;7.85;3.85;;;;;;;12.99;100.00;101087.72;5007637;28;20113;-70
2023/09/01 00:05:09;;;;;;;8.07;3.95;;;;;;;12.97;100.00;101071.47;5006645;28;20501;-70
2023/09/01 00:07:35;;;;;;;9.40;4.20;;;;;;;12.95;100.00;101067.97;5008024;28;20042;-70
2023/09/01 00:10:01;;;;;;;10.45;4.00;;;;;;;12.93;100.00;101063.63;5007384;28;20367;-71
2023/09/01 00:12:26;;;;;;;8.82;4.25;;;;;;;12.87;100.00;101054.06;5008017;28;20041;-71
2023/09/01 00:14:52;;;;;;;6.97;3.88;;;;;;;12.83;100.00;101054.44;5006332;28;20022;-71
2023/09/01 00:17:17;;;;;;;6.88;4.00;;;;;;;12.80;100.00;101068.31;5007405;28;20045;-71
2023/09/01 00:19:43;;;;;;;6.75;3.78;;;;;;;12.75;100.00;101060.47;5007339;28;20478;-71
2023/09/01 00:22:08;;;;;;;8.40;4.40;;;;;;;12.72;100.00;101066.16;5011363;28;20033;-71
2023/09/01 00:24:34;;;;;;;8.45;3.90;;;;;;;12.67;100.00;101066.53;5011206;28;20076;-71
2023/09/01 00:27:00;;;;;;;10.55;4.07;;;;;;;12.65;100.00;101060.34;5022670;28;20014;-71
2023/09/01 00:29:25;;;;;;;8.65;4.05;;;;;;;12.65;100.00;101063.06;5009921;28;20038;-71
2023/09/01 00:31:51;;;;;;;7.15;3.88;;;;;;;12.65;100.00;101057.59;5011285;28;20038;-71
2023/09/01 00:34:16;;;;;;;8.05;4.00;;;;;;;12.65;100.00;101051.28;5011242;28;20178;-71
2023/09/01 00:36:42;;;;;;;11.30;4.05;;;;;;;12.68;100.00;101053.75;5010986;28;20119;-71
2023/09/01 00:39:08;;;;;;;8.45;4.15;;;;;;;12.68;100.00;101053.75;5011150;28;20053;-71
2023/09/01 00:41:34;;;;;;;9.70;4.60;;;;;;;12.67;100.00;101054.75;5021398;28;20108;-71
2023/09/01 00:43:59;;;;;;;7.65;4.22;;;;;;;12.71;100.00;101048.06;5029093;28;20040;-71
2023/09/01 00:46:26;;;;;;;8.40;4.97;;;;;;;12.70;100.00;101041.72;5029111;28;20033;-71
2023/09/01 00:48:51;;;;;;;9.20;4.35;;;;;;;12.70;100.00;101039.00;5029241;28;20060;-71
2023/09/01 00:51:17;;;;;;;10.07;4.07;;;;;;;12.69;100.00;101030.94;5009847;28;20131;-71
2023/09/01 00:53:42;;;;;;;8.32;4.28;;;;;;;12.67;100.00;101031.03;5025634;28;20030;-71
2023/09/01 00:56:08;;;;;;;8.57;4.35;;;;;;;12.68;100.00;101035.53;5017097;28;20060;-71
2023/09/01 00:58:34;;;;;;;10.52;4.88;;;;;;;12.71;100.00;101037.13;5028864;28;20037;-71
2023/09/01 01:00:59;;;;;;;9.98;4.70;;;;;;;12.73;100.00;101043.38;5028369;28;20056;-71
2023/09/01 01:03:26;;;;;;;12.10;5.68;;;;;;;12.71;100.00;101035.28;5029086;28;20084;-71
2023/09/01 01:06:16;;;;;;;10.88;5.45;;;;;;;12.73;100.00;101038.78;5011273;28;20042;-71
2023/09/01 01:09:20;;;;;;;11.05;4.38;;;;;;;12.74;100.00;101056.88;5010826;28;20123;-71
2023/09/01 01:12:16;;;;;;;10.63;4.70;;;;;;;12.76;100.00;101063.09;5010501;28;20046;-71
2023/09/01 01:14:47;;;;;;;8.40;4.72;;;;;;;12.73;100.00;101048.81;5009904;28;20076;-71
2023/09/01 01:17:14;;;;;;;9.25;4.75;;;;;;;12.71;100.00;101057.13;5016747;28;20049;-71
2023/09/01 01:19:54;;;;;;;8.07;5.20;;;;;;;12.75;100.00;101063.22;5009606;28;20147;-71
2023/09/01 01:22:28;;;;;;;10.43;4.55;;;;;;;12.74;100.00;101058.75;5025730;28;20067;-71
2023/09/01 01:24:53;;;;;;;10.98;5.20;;;;;;;12.73;100.00;101059.75;5008883;28;20138;-71
2023/09/01 01:27:18;;;;;;;7.78;4.30;;;;;;;12.72;100.00;101047.94;5010456;28;20446;-71
2023/09/01 01:29:44;;;;;;;10.05;4.45;;;;;;;12.71;100.00;101046.19;5010093;28;20111;-71
2023/09/01 01:32:09;;;;;;;10.43;4.95;;;;;;;12.70;100.00;101047.19;5009518;28;20034;-71
2023/09/01 01:34:41;;;;;;;14.45;5.10;;;;;;;12.67;100.00;101041.97;5009480;28;20124;-71
2023/09/01 01:37:17;;;;;;;7.97;4.82;;;;;;;12.66;100.00;101047.56;5024818;28;20045;-71
2023/09/01 01:39:45;;;;;;;11.57;5.38;;;;;;;12.65;100.00;101054.00;5010116;28;20042;-71
2023/09/01 01:42:15;;;;;;;7.38;4.53;;;;;;;12.65;100.00;101054.00;5009996;28;20038;-71
2023/09/01 01:44:44;;;;;;;10.15;4.90;;;;;;;12.66;100.00;101056.59;5013978;28;20497;-71
2023/09/01 01:47:11;;;;;;;10.98;5.22;;;;;;;12.66;100.00;101058.47;5029143;28;20053;-71
2023/09/01 01:49:36;;;;;;;9.10;4.53;;;;;;;12.65;100.00;101065.78;5028784;28;20042;-71
2023/09/01 01:52:04;;;;;;;13.02;5.45;;;;;;;12.66;100.00;101067.53;5023798;28;20021;-71
2023/09/01 01:54:30;;;;;;;10.30;5.05;;;;;;;12.68;100.00;101067.41;5009876;28;20037;-71
2023/09/01 01:56:56;;;;;;;7.15;4.20;;;;;;;12.72;100.00;101071.63;5009596;28;20030;-71
2023/09/01 01:59:21;;;;;;;7.57;4.72;;;;;;;12.74;100.00;101066.94;5008279;28;20080;-71
2023/09/01 02:01:47;;;;;;;8.80;5.30;;;;;;;12.73;100.00;101054.28;5008265;28;20054;-71
2023/09/01 02:04:12;;;;;;;11.77;5.35;;;;;;;12.75;100.00;101042.25;5008866;28;20038;-71
2023/09/01 02:06:38;;;;;;;11.07;5.28;;;;;;;12.77;100.00;101044.84;5009486;28;20056;-71
2023/09/01 02:09:08;;;;;;;10.07;5.40;;;;;;;12.79;100.00;101048.34;5008162;28;20041;-71
2023/09/01 02:11:37;;;;;;;10.77;5.22;;;;;;;12.78;100.00;101038.41;5017760;28;20405;-71
2023/09/01 02:14:03;;;;;;;8.02;4.32;;;;;;;12.75;100.00;101039.50;5028975;28;20418;-71
2023/09/01 02:16:29;;;;;;;14.80;5.47;;;;;;;12.74;100.00;101045.09;5018363;28;20026;-71
2023/09/01 02:18:54;;;;;;;15.98;5.50;;;;;;;12.69;100.00;101039.13;5006902;28;20383;-71
2023/09/01 02:21:20;;;;;;;11.52;4.53;;;;;;;12.67;100.00;101043.81;5008154;28;20037;-71
2023/09/01 02:23:46;;;;;;;9.20;4.80;;;;;;;12.66;100.00;101045.69;5010727;28;20054;-71
2023/09/01 02:26:19;;;;;;;9.05;4.47;;;;;;;12.64;100.00;101042.22;5019621;28;20137;-71
2023/09/01 02:28:45;;;;;;;;;;;;;;;12.68;100.00;101035.53;5008002;28;20038;-71
2023/09/01 02:31:10;;;;;;;9.65;5.05;;;;;;;12.62;100.00;101038.72;5007168;28;19917;-71
2023/09/01 02:33:36;;;;;;;13.25;4.40;;;;;;;12.63;100.00;101037.72;5011051;28;20041;-71
2023/09/01 02:36:21;;;;;;;14.02;5.75;;;;;;;12.66;100.00;101033.91;5015768;28;20029;-71
2023/09/01 02:38:46;;;;;;;8.10;4.55;;;;;;;12.65;100.00;101034.91;5028780;28;20068;-71
2023/09/01 02:41:11;;;;;;;10.70;4.93;;;;;;;12.65;100.00;101038.50;5001374;28;20128;-71
2023/09/01 02:43:37;;;;;;;10.10;4.93;;;;;;;12.63;100.00;101043.19;5006935;28;20088;-71
2023/09/01 02:46:04;;;;;;;10.40;5.40;;;;;;;12.62;100.00;101024.22;5007238;28;20042;-71
2023/09/01 02:48:30;;;;;;;10.25;5.80;;;;;;;12.52;100.00;101018.59;5006531;28;20488;-71
2023/09/01 02:50:55;;;;;;;13.75;5.60;;;;;;;12.51;100.00;101025.06;5008455;28;20034;-71
2023/09/01 02:53:21;;;;;;;13.98;5.15;;;;;;;12.49;100.00;101030.63;5008238;28;20113;-71
2023/09/01 02:55:46;;;;;;;13.35;5.13;;;;;;;12.50;100.00;101036.97;5007052;28;20410;-71
2023/09/01 02:58:11;;;;;;;11.32;5.95;;;;;;;12.50;100.00;101037.84;5007275;28;20387;-71
2023/09/01 03:00:38;;;;;;;7.97;5.32;;;;;;;12.52;100.00;101033.13;5007681;28;20517;-71
2023/09/01 03:03:03;;;;;;;12.50;5.47;;;;;;;12.52;100.00;101026.78;5007024;28;20457;-72
2023/09/01 03:05:29;;;;;;;14.50;5.72;;;;;;;12.54;100.00;101032.97;5006081;28;20038;-71
2023/09/01 03:07:57;;;;;;;10.52;5.10;;;;;;;12.58;100.00;101033.63;5007358;28;20045;-71
2023/09/01 03:10:23;;;;;;;9.10;5.25;;;;;;;12.59;100.00;101024.44;5008548;28;20149;-71
2023/09/01 03:12:49;;;;;;;10.68;4.70;;;;;;;12.61;100.00;101025.22;5007465;28;20112;-71
2023/09/01 03:15:15;;;;;;;9.05;5.35;;;;;;;12.60;100.00;101023.47;5018302;28;20029;-71
2023/09/01 03:17:40;;;;;;;17.67;5.53;;;;;;;12.60;100.00;101018.88;5026453;28;20041;-71
2023/09/01 03:20:09;;;;;;;9.25;5.72;;;;;;;12.58;100.00;101020.84;5011669;28;20030;-71
2023/09/01 03:22:35;;;;;;;9.30;5.80;;;;;;;12.60;100.00;101024.34;5006582;28;20040;-71
2023/09/01 03:25:01;;;;;;;13.85;5.88;;;;;;;12.60;100.00;101018.88;5006854;28;20034;-71
2023/09/01 03:27:27;;;;;;;14.23;5.97;;;;;;;12.59;100.00;101033.53;5007381;28;20037;-71
2023/09/01 03:29:55;;;;;;;9.50;6.10;;;;;;;12.57;100.00;101024.56;5006388;28;20129;-71
2023/09/01 03:32:23;;;;;;;10.50;6.38;;;;;;;12.59;100.00;101018.97;5021426;28;20128;-71
2023/09/01 03:34:50;;;;;;;12.73;5.32;;;;;;;12.59;100.00;101017.16;5023004;28;20121;-71
2023/09/01 03:37:15;;;;;;;9.98;5.90;;;;;;;12.62;100.00;101019.63;5024740;28;20044;-71
2023/09/01 03:39:41;;;;;;;10.55;5.90;;;;;;;12.64;100.00;101011.34;5026254;28;20025;-71
2023/09/01 03:42:06;;;;;;;9.65;5.90;;;;;;;12.66;100.00;101007.47;5009836;28;20038;-71
2023/09/01 03:44:31;;;;;;;11.38;5.65;;;;;;;12.69;100.00;101017.28;5006414;28;20044;-71
2023/09/01 03:46:58;;;;;;;14.60;6.28;;;;;;;12.70;100.00;101011.72;5006121;28;20040;-71
2023/09/01 03:49:26;;;;;;;9.75;6.28;;;;;;;12.72;100.00;101012.44;5005802;28;20106;-71
2023/09/01 03:51:51;;;;;;;11.65;6.35;;;;;;;12.75;100.00;101014.06;5020236;28;20037;-71
2023/09/01 03:54:17;;;;;;;11.43;5.88;;;;;;;12.77;100.00;101010.22;5026833;28;20362;-71
2023/09/01 03:56:42;;;;;;;13.85;6.43;;;;;;;12.77;100.00;101003.88;5018121;28;20046;-71
2023/09/01 03:59:07;;;;;;;10.77;6.35;;;;;;;12.80;100.00;101006.38;5010106;28;20038;-71
2023/09/01 04:01:33;;;;;;;15.80;6.38;;;;;;;12.80;100.00;101011.84;5010399;28;20069;-71
2023/09/01 04:04:01;;;;;;;11.82;6.25;;;;;;;12.82;100.00;101003.53;5009402;28;20164;-71
2023/09/01 04:06:26;;;;;;;13.45;6.47;;;;;;;12.82;100.00;100995.31;5010414;28;20042;-71
2023/09/01 04:08:52;;;;;;;16.42;7.72;;;;;;;12.85;100.00;101001.44;5011200;28;20109;-71
2023/09/01 04:11:17;;;;;;;12.82;5.93;;;;;;;12.86;100.00;100999.56;5012179;28;20049;-71
2023/09/01 04:13:43;;;;;;;18.58;7.22;;;;;;;12.89;100.00;101000.19;5011585;28;20037;-71
2023/09/01 04:16:09;;;;;;;16.00;6.72;;;;;;;12.92;100.00;100999.09;5009883;28;20029;-71
2023/09/01 04:18:34;;;;;;;13.95;6.55;;;;;;;12.95;100.00;101002.44;5009346;28;20033;-71
2023/09/01 04:21:00;;;;;;;12.35;6.05;;;;;;;12.97;100.00;101002.31;5013129;28;20077;-71
2023/09/01 04:23:26;;;;;;;9.75;6.28;;;;;;;12.99;100.00;100994.88;5010064;28;20034;-71
2023/09/01 04:25:52;;;;;;;14.82;6.50;;;;;;;12.99;100.00;100997.59;5018833;28;20057;-71
2023/09/01 04:28:21;;;;;;;8.80;5.75;;;;;;;13.05;100.00;101002.56;5026593;28;20040;-71
2023/09/01 04:30:48;;;;;;;11.88;6.03;;;;;;;13.06;100.00;100996.13;5025259;28;20034;-71
2023/09/01 04:33:13;;;;;;;9.90;6.10;;;;;;;13.07;100.00;100997.00;5020248;28;20489;-71
2023/09/01 04:35:39;;;;;;;12.55;6.75;;;;;;;13.09;100.00;100995.00;5029021;28;20037;-71
2023/09/01 04:38:06;;;;;;;12.50;6.88;;;;;;;13.10;100.00;100988.53;5029456;28;20029;-71
2023/09/01 04:40:31;;;;;;;13.10;6.25;;;;;;;13.11;100.00;100991.16;5025940;28;20037;-71
2023/09/01 04:42:57;;;;;;;11.85;6.97;;;;;;;13.12;100.00;101000.22;5026334;28;20029;-71
2023/09/01 04:45:25;;;;;;;21.42;7.93;;;;;;;13.12;100.00;101003.81;5026181;28;20042;-71
2023/09/01 04:47:51;;;;;;;13.05;6.45;;;;;;;13.12;100.00;100997.50;5029873;28;20036;-71
2023/09/01 04:50:17;;;;;;;12.73;7.60;;;;;;;13.11;100.00;101007.53;5016696;28;20339;-71
2023/09/01 04:52:42;;;;;;;13.65;6.80;;;;;;;13.10;100.00;101000.31;5009405;28;20113;-71
2023/09/01 04:55:09;;;;;;;16.08;7.32;;;;;;;13.09;100.00;100998.59;5008743;28;20034;-71
2023/09/01 04:57:35;;;;;;;14.35;7.20;;;;;;;13.10;100.00;101005.78;5024998;28;20064;-71
2023/09/01 05:00:02;;;;;;;10.48;6.68;;;;;;;13.13;100.00;101008.28;5008895;28;20456;-71
2023/09/01 05:02:28;;;;;;;14.90;6.93;;;;;;;13.15;100.00;101002.69;5008970;28;20563;-71
2023/09/01 05:04:53;;;;;;;13.15;6.32;;;;;;;13.16;100.00;100998.97;5007948;28;20041;-71
2023/09/01 05:07:18;;;;;;;11.55;6.78;;;;;;;13.19;100.00;101007.78;5010585;28;20074;-71
2023/09/01 05:09:44;;;;;;;14.77;7.10;;;;;;;13.23;100.00;101000.22;5012824;28;20061;-71
2023/09/01 05:12:09;;;;;;;14.93;7.35;;;;;;;13.24;100.00;101010.16;5018792;28;20029;-71
2023/09/01 05:14:34;;;;;;;11.77;6.85;;;;;;;13.27;100.00;101007.19;5009085;28;20120;-71
2023/09/01 05:17:00;;;;;;;13.35;6.70;;;;;;;13.30;100.00;101006.97;5023609;28;20049;-71
2023/09/01 05:19:26;;;;;;;9.20;6.95;;;;;;;13.32;100.00;101010.41;5027840;28;20087;-71
2023/09/01 05:21:51;;;;;;;11.88;6.82;;;;;;;13.33;100.00;101003.94;5021128;28;20037;-71
2023/09/01 05:24:17;;;;;;;11.57;6.50;;;;;;;13.34;100.00;101002.97;5024965;28;20034;-71
2023/09/01 05:26:42;;;;;;;13.02;6.53;;;;;;;13.40;100.00;101004.34;5014365;28;20096;-71
2023/09/01 05:29:07;;;;;;;11.18;6.22;;;;;;;13.45;100.00;101004.81;5028179;28;20037;-71
2023/09/01 05:31:33;;;;;;;11.13;6.85;;;;;;;13.47;100.00;101016.50;5026011;28;20138;-71
2023/09/01 05:34:00;;;;;;;13.07;6.50;;;;;;;13.52;100.00;101011.50;5007906;28;20060;-71
2023/09/01 05:36:26;;;;;;;14.05;6.60;;;;;;;13.56;100.00;101013.00;5014197;28;20037;-71
2023/09/01 05:38:51;;;;;;;14.98;8.05;;;;;;;13.60;100.00;101013.63;5020988;28;20045;-71
2023/09/01 05:41:17;;;;;;;12.57;7.45;;;;;;;13.64;100.00;101012.38;5009099;28;20038;-71
2023/09/01 05:43:42;;;;;;;12.25;6.72;;;;;;;13.67;100.00;101015.75;5008385;28;20450;-71
2023/09/01 05:46:08;;;;;;;10.73;7.55;;;;;;;13.67;100.00;101013.00;4991584;28;20113;-72
2023/09/01 05:48:34;;;;;;;14.85;6.75;;;;;;;13.70;100.00;101018.19;5007504;28;20486;-71
2023/09/01 05:51:00;;;;;;;10.15;6.63;;;;;;;13.74;100.00;101016.94;5020042;28;20029;-71
2023/09/01 05:53:26;;;;;;;14.20;7.43;;;;;;;13.77;100.00;101013.09;5008311;28;20044;-71
2023/09/01 05:55:52;;;;;;;15.27;7.72;;;;;;;13.81;100.00;101011.00;5009240;28;20356;-71
2023/09/01 05:58:17;;;;;;;10.80;7.03;;;;;;;13.84;100.00;101007.97;5009836;28;20245;-71
2023/09/01 06:00:42;;;;;;;12.25;7.38;;;;;;;13.88;100.00;101004.88;5008154;28;20054;-71
2023/09/01 06:03:08;;;;;;;12.48;7.05;;;;;;;13.92;100.00;101006.34;5016216;28;20037;-71
2023/09/01 06:05:33;;;;;;;11.77;7.47;;;;;;;13.99;100.00;101007.59;5022631;28;20545;-71
2023/09/01 06:07:58;;;;;;;11.80;7.05;;;;;;;14.04;100.00;100999.84;5008117;28;20080;-72
2023/09/01 06:10:24;;;;;;;15.43;7.32;;;;;;;14.09;100.00;101002.19;5010875;28;20505;-71
2023/09/01 06:12:49;;;;;;;13.68;7.22;;;;;;;14.14;100.00;101010.03;5009784;28;20482;-71
2023/09/01 06:15:14;;;;;;;10.52;7.53;;;;;;;14.19;100.00;101008.63;5008353;28;20024;-71
2023/09/01 06:17:40;;;;;;;14.68;7.18;;;;;;;14.19;100.00;101007.75;5008203;28;20034;-71
2023/09/01 06:20:06;;;;;;;14.80;7.63;;;;;;;14.20;100.00;101013.09;5008371;28;20044;-71
2023/09/01 06:22:33;;;;;;;16.35;7.25;;;;;;;14.23;100.00;101012.84;5009618;28;20477;-72
2023/09/01 06:24:58;;;;;;;11.57;7.75;;;;;;;14.26;100.00;101018.03;5009151;28;20041;-72
2023/09/01 06:27:24;;;;;;;17.52;7.50;;;;;;;14.30;100.00;101018.66;5009121;28;20454;-72
2023/09/01 06:29:49;;;;;;;17.55;7.47;;;;;;;14.35;100.00;101023.72;5009173;28;20026;-72
2023/09/01 06:32:14;;;;;;;13.23;7.72;;;;;;;14.36;100.00;101023.63;5008465;28;20044;-71
2023/09/01 06:34:40;;;;;;;10.18;7.35;;;;;;;14.38;100.00;101028.94;5017964;28;20140;-72
2023/09/01 06:37:06;;;;;;;11.35;7.05;;;;;;;14.41;100.00;101025.94;5011902;28;20105;-72
2023/09/01 06:39:32;;;;;;;17.75;7.82;;;;;;;14.40;100.00;101025.06;5007220;28;20187;-71
2023/09/01 06:41:57;;;;;;;12.07;7.38;;;;;;;14.43;100.00;101024.81;5008271;28;20529;-72
2023/09/01 06:44:25;;;;;;;17.52;7.63;;;;;;;14.43;100.00;101029.41;5007383;28;20037;-72
2023/09/01 06:46:50;;;;;;;10.75;6.90;;;;;;;14.45;100.00;101025.53;5008745;28;20042;-72
2023/09/01 06:49:16;;;;;;;11.20;7.85;;;;;;;14.49;100.00;101028.91;5007813;28;20029;-72
2023/09/01 06:51:41;;;;;;;13.15;7.47;;;;;;;14.56;100.00;101029.28;5006903;28;20397;-72
2023/09/01 06:54:07;;;;;;;15.52;8.27;;;;;;;14.57;100.00;101031.88;5008639;28;20033;-72
2023/09/01 06:56:32;;;;;;;16.40;7.78;;;;;;;14.64;100.00;101034.94;5008843;28;20137;-72
2023/09/01 06:58:58;;;;;;;14.50;7.65;;;;;;;14.66;100.00;101020.13;5008289;28;20120;-72
2023/09/01 07:01:23;;;;;;;12.93;7.22;;;;;;;14.70;100.00;101023.47;5007879;28;20046;-71
2023/09/01 07:03:48;;;;;;;14.88;7.97;;;;;;;14.71;100.00;101012.38;5012541;28;20116;-72
2023/09/01 07:06:15;;;;;;;13.60;8.43;;;;;;;14.69;100.00;101006.19;5001241;28;20148;-72
2023/09/01 07:08:40;;;;;;;17.17;8.38;;;;;;;14.72;100.00;101014.09;5008118;28;20513;-71
2023/09/01 07:11:10;;;;;;;16.70;9.82;;;;;;;14.74;100.00;101014.00;5014079;28;20037;-72
2023/09/01 07:13:35;;;;;;;16.15;9.55;;;;;;;14.73;100.00;100993.91;5027325;28;20037;-71
2023/09/01 07:16:01;;;;;;;14.75;8.45;;;;;;;14.77;100.00;101002.75;5027609;28;20043;-72
2023/09/01 07:18:26;;;;;;;13.98;9.27;;;;;;;14.78;100.00;100999.00;5007037;28;20490;-72
2023/09/01 07:20:58;;;;;;;17.08;7.88;;;;;;;14.78;100.00;100999.91;5011283;28;20112;-72
2023/09/01 07:23:23;;;;;;;16.25;9.15;;;;;;;14.80;100.00;101006.09;5007400;28;20033;-72
2023/09/01 07:25:48;;;;;;;15.35;8.73;;;;;;;14.81;100.00;101006.94;5011725;28;20044;-72
2023/09/01 07:28:14;;;;;;;16.52;8.80;;;;;;;14.80;100.00;101005.22;5017582;28;20125;-72
2023/09/01 07:30:40;;;;;;;17.00;8.57;;;;;;;14.80;100.00;101002.47;5007787;28;20452;-73
2023/09/01 07:33:05;;;;;;;12.45;8.18;;;;;;;14.80;100.00;101000.59;5008421;28;20032;-73
2023/09/01 07:35:30;;;;;;;14.38;8.73;;;;;;;14.81;100.00;101004.22;5005842;28;20079;-72
2023/09/01 07:37:56;;;;;;;15.30;8.27;;;;;;;14.83;100.00;100990.38;5008185;28;20018;-72
2023/09/01 07:40:22;;;;;;;18.85;9.13;;;;;;;14.82;100.00;100997.72;5008047;28;20048;-72
2023/09/01 07:42:47;;;;;;;13.20;9.00;;;;;;;14.81;100.00;100990.53;5015306;28;20034;-72
2023/09/01 07:45:13;;;;;;;19.77;8.93;;;;;;;14.85;100.00;100997.47;5025938;28;20504;-73
2023/09/01 07:47:38;;;;;;;12.75;9.10;;;;;;;14.86;100.00;100998.34;5024087;28;20034;-73
2023/09/01 07:50:04;;;;;;;15.30;8.50;;;;;;;14.85;100.00;101005.69;5020800;28;20535;-73
2023/09/01 07:52:30;;;;;;;15.50;9.70;;;;;;;14.87;100.00;100998.19;5008227;28;20064;-73
2023/09/01 07:54:55;;;;;;;19.15;10.15;;;;;;;14.88;100.00;100999.94;5006268;28;20080;-72
2023/09/01 07:57:20;;;;;;;14.18;9.30;;;;;;;14.88;100.00;100999.94;5008051;28;20077;-72
2023/09/01 07:59:46;;;;;;;16.38;8.75;;;;;;;14.90;100.00;101000.66;5006070;28;20057;-72
2023/09/01 08:02:11;;;;;;;13.43;8.40;;;;;;;14.92;100.00;101012.38;5006871;28;20050;-73
2023/09/01 08:04:36;;;;;;;19.85;10.05;;;;;;;14.95;100.00;101008.47;5006670;28;20168;-72
2023/09/01 08:07:03;;;;;;;13.75;8.65;;;;;;;14.98;100.00;101019.19;5007322;28;20045;-72
2023/09/01 08:09:29;;;;;;;17.60;9.82;;;;;;;14.98;100.00;101006.34;5007452;28;20636;-73
2023/09/01 08:11:55;;;;;;;16.73;9.45;;;;;;;15.00;100.00;101018.03;5007231;28;20112;-73
2023/09/01 08:14:21;;;;;;;13.55;8.73;;;;;;;15.05;100.00;101026.69;5007606;28;20064;-74
2023/09/01 08:16:47;;;;;;;13.43;9.35;;;;;;;15.07;100.00;101028.47;4989323;28;20081;-72
2023/09/01 08:19:13;;;;;;;13.05;8.57;;;;;;;15.08;100.00;101027.44;5006246;28;20557;-73
2023/09/01 08:21:38;;;;;;;14.27;9.50;;;;;;;15.10;100.00;101030.91;5010888;28;20109;-73
2023/09/01 08:24:04;;;;;;;13.40;9.15;;;;;;;15.09;100.00;101032.78;4989546;28;20045;-73
2023/09/01 08:26:29;;;;;;;13.38;8.90;;;;;;;15.09;100.00;101029.19;5006697;28;20069;-73
2023/09/01 08:28:54;;;;;;;12.02;8.77;;;;;;;15.10;100.00;101034.50;5005449;28;20037;-73
2023/09/01 08:31:20;;;;;;;12.68;8.88;;;;;;;15.09;100.00;101027.31;5005258;28;20033;-73
2023/09/01 08:33:45;;;;;;;16.08;9.68;;;;;;;15.12;100.00;101035.25;5006357;28;20038;-72
2023/09/01 08:36:10;;;;;;;14.88;9.82;;;;;;;15.17;100.00;101035.72;5013824;28;20049;-74
2023/09/01 08:38:36;;;;;;;15.35;10.30;;;;;;;15.19;100.00;101035.56;5026924;28;20493;-74
2023/09/01 08:41:04;;;;;;;15.38;9.57;;;;;;;15.20;100.00;101042.78;5025419;28;20044;-74
2023/09/01 08:43:36;;;;;;;13.55;8.65;;;;;;;15.22;100.00;101046.28;5012722;28;20041;-73
2023/09/01 08:46:03;;;;;;;12.82;9.02;;;;;;;15.26;100.00;101047.75;5029889;28;20041;-73
2023/09/01 08:48:33;;;;;;;12.75;8.68;;;;;;;15.29;100.00;101047.44;5019522;28;20640;-74
2023/09/01 08:50:58;;;;;;;12.70;8.45;;;;;;;15.32;100.00;101056.28;5010046;28;20080;-74
2023/09/01 08:53:26;;;;;;;14.80;10.13;;;;;;;15.36;100.00;101058.75;5010546;28;20512;-73
2023/09/01 08:55:55;;;;;;;15.80;9.07;;;;;;;15.37;100.00;101065.97;5010484;28;20363;-72
2023/09/01 08:58:21;;;;;;;14.88;9.65;;;;;;;15.36;100.00;101062.38;5010811;28;20038;-73
2023/09/01 09:00:48;;;;;;;13.77;9.45;;;;;;;15.37;100.00;101060.50;5010027;28;20085;-73
2023/09/01 09:03:16;;;;;;;14.40;8.98;;;;;;;15.36;100.00;101056.88;5010106;28;20034;-73
2023/09/01 09:05:44;;;;;;;16.13;9.20;;;;;;;15.34;100.00;101060.75;5009366;28;20486;-73
2023/09/01 09:08:09;;;;;;;12.80;8.93;;;;;;;15.35;100.00;101052.41;5010723;28;20041;-74
2023/09/01 09:10:40;;;;;;;10.73;8.02;;;;;;;15.39;100.00;101058.47;5010211;28;20112;-73
2023/09/01 09:13:26;;;;;;;11.57;8.63;;;;;;;15.44;100.00;101056.22;5008686;28;20505;-73
2023/09/01 09:16:10;;;;;;;12.20;8.40;;;;;;;15.45;100.00;101063.41;5010637;28;20040;-73
2023/09/01 09:18:37;;;;;;;12.77;8.63;;;;;;;15.46;100.00;101059.66;5009309;28;20042;-73
2023/09/01 09:21:03;;;;;;;11.63;8.30;;;;;;;15.47;100.00;101059.50;5009532;28;20474;-72
2023/09/01 09:23:45;;;;;;;9.60;7.93;;;;;;;15.49;100.00;101065.75;5008766;28;20088;-73
2023/09/01 09:26:11;;;;;;;11.57;7.93;;;;;;;15.49;100.00;101067.63;5011169;28;20184;-73
2023/09/01 09:28:37;;;;;;;13.30;8.30;;;;;;;15.51;100.00;101071.94;5028160;28;20075;-73
2023/09/01 09:31:03;;;;;;;9.40;7.20;;;;;;;15.50;100.00;101064.72;5022601;28;20116;-74
2023/09/01 09:33:33;;;;;;;10.15;7.18;;;;;;;15.55;100.00;101072.56;5024384;28;20037;-73
2023/09/01 09:35:59;;;;;;;8.30;6.97;;;;;;;15.57;100.00;101079.66;5022711;28;20567;-74
2023/09/01 09:38:42;;;;;;;11.18;6.90;;;;;;;15.63;100.00;101080.09;5023748;28;20112;-74
2023/09/01 09:41:07;;;;;;;10.13;7.32;;;;;;;15.67;100.00;101081.59;5023079;28;20080;-73
2023/09/01 09:43:47;;;;;;;9.32;6.53;;;;;;;15.72;100.00;101091.16;5008218;28;20120;-73
2023/09/01 09:46:14;;;;;;;9.45;7.38;;;;;;;15.75;100.00;101089.97;5008862;28;20058;-73
2023/09/01 09:48:40;;;;;;;8.93;6.47;;;;;;;15.80;100.00;101076.72;5008378;28;20026;-74
2023/09/01 09:51:10;;;;;;;9.25;7.32;;;;;;;15.82;100.00;101071.97;5008887;28;20040;-74
2023/09/01 09:53:37;;;;;;;9.57;6.63;;;;;;;15.86;100.00;101078.06;5008385;28;20042;-74
2023/09/01 09:56:30;;;;;;;9.55;6.38;;;;;;;15.86;100.00;101075.31;5009439;28;20040;-72
2023/09/01 09:59:01;;;;;;;7.47;5.97;;;;;;;15.85;100.00;101079.03;5008971;28;20379;-73
2023/09/01 10:01:30;;;;;;;9.48;6.70;;;;;;;15.87;100.00;101066.06;5007806;28;20414;-74
2023/09/01 10:03:56;;;;;;;7.63;6.35;;;;;;;15.90;100.00;101065.75;5007201;28;20053;-73
2023/09/01 10:06:23;;;;;;;8.20;5.82;;;;;;;15.93;100.00;101071.84;5026566;28;20030;-71
2023/09/01 10:08:51;;;;;;;8.20;6.50;;;;;;;15.99;100.00;101071.31;5029782;28;20049;-73
2023/09/01 10:11:17;;;;;;;7.13;5.55;;;;;;;16.06;100.00;101072.47;5020209;28;20091;-74
2023/09/01 10:13:45;;;;;;;6.97;5.78;;;;;;;16.13;100.00;101071.88;5009088;28;20026;-74
2023/09/01 10:16:11;;;;;;;7.93;6.15;;;;;;;16.17;100.00;101070.59;5007625;28;20549;-74
2023/09/01 10:18:37;;;;;;;6.38;5.72;;;;;;;16.17;100.00;101068.72;5008110;28;20799;-74
2023/09/01 10:21:04;;;;;;;6.40;5.68;;;;;;;16.17;100.00;101065.09;5012803;28;20485;-74
2023/09/01 10:23:32;;;;;;;7.20;5.85;;;;;;;16.14;100.00;101063.53;5027350;28;20032;-72
2023/09/01 10:26:24;;;;;;;8.25;6.43;;;;;;;16.14;100.00;101062.66;5018423;28;20038;-73
2023/09/01 10:28:55;;;;;;;8.90;6.03;;;;;;;16.14;100.00;101068.16;5010316;28;20041;-73
2023/09/01 10:31:21;;;;;;;6.50;5.30;;;;;;;16.18;100.00;101069.56;5009316;28;20060;-73
2023/09/01 10:33:46;;;;;;;7.53;5.55;;;;;;;16.23;100.00;101072.78;5006499;28;20434;-73
2023/09/01 10:36:13;;;;;;;8.68;5.70;;;;;;;16.28;100.00;101078.72;5020771;28;20033;-73
2023/09/01 10:38:40;;;;;;;7.55;5.53;;;;;;;16.32;100.00;101080.19;5028114;28;20096;-73
2023/09/01 10:41:06;;;;;;;5.82;5.22;;;;;;;16.32;100.00;101072.81;5021948;28;20021;-73
2023/09/01 10:43:31;;;;;;;6.93;5.10;;;;;;;16.38;100.00;101073.25;5007438;28;20528;-73
2023/09/01 10:46:26;;;;;;;5.75;4.75;;;;;;;16.47;100.00;101086.97;5006668;28;20034;-73
2023/09/01 10:48:59;;;;;;;5.78;4.95;;;;;;;16.58;100.00;101088.72;5015381;28;20203;-70
2023/09/01 10:51:25;;;;;;;4.95;4.45;;;;;;;16.69;100.00;101088.56;5008937;28;20037;-73
2023/09/01 10:53:52;;;;;;;6.25;4.78;;;;;;;16.82;100.00;101091.91;5009079;28;20500;-72
2023/09/01 10:56:20;;;;;;;6.20;5.60;;;;;;;16.97;100.00;101091.47;5008630;28;20506;-72
2023/09/01 10:58:50;;;;;;;8.85;5.63;;;;;;;17.07;100.00;101092.34;5007661;28;20422;-72
2023/09/01 11:01:32;;;;;;;5.85;4.80;;;;;;;17.17;100.00;101087.69;5007609;28;20046;-71
2023/09/01 11:04:13;;;;;;;5.05;4.55;;;;;;;17.33;100.00;101089.81;5006915;28;20034;-73
2023/09/01 11:06:57;;;;;;;5.82;4.90;;;;;;;17.41;100.00;101087.19;5018651;28;20107;-73
2023/09/01 11:09:34;;;;;;;6.18;4.80;;;;;;;17.57;100.00;101092.91;5027857;28;20092;-73
2023/09/01 11:12:03;;;;;;;4.90;4.30;;;;;;;17.64;100.00;101084.06;5012686;28;20042;-73